sensor_id;sensor_type;location;lat;lon;timestamp;temperature;humidity
67598;DHT22;62026;39.230;9.122;2023-09-19T00:00:46;27.90;71.00
67598;DHT22;62026;39.230;9.122;2023-09-19T00:03:13;27.90;70.60
67598;DHT22;62026;39.230;9.122;2023-09-19T00:05:39;27.90;70.20
67598;DHT22;62026;39.230;9.122;2023-09-19T00:08:05;27.90;70.10
67598;DHT22;62026;39.230;9.122;2023-09-19T00:10:32;27.90;69.70
67598;DHT22;62026;39.230;9.122;2023-09-19T00:13:03;27.90;69.30
67598;DHT22;62026;39.230;9.122;2023-09-19T00:15:37;27.90;69.30
67598;DHT22;62026;39.230;9.122;2023-09-19T00:18:07;27.90;69.40
67598;DHT22;62026;39.230;9.122;2023-09-19T00:20:37;27.90;69.90
67598;DHT22;62026;39.230;9.122;2023-09-19T00:23:05;27.80;70.10
67598;DHT22;62026;39.230;9.122;2023-09-19T00:25:31;27.80;70.20
67598;DHT22;62026;39.230;9.122;2023-09-19T00:27:57;27.80;70.30
67598;DHT22;62026;39.230;9.122;2023-09-19T00:30:23;27.80;70.20
67598;DHT22;62026;39.230;9.122;2023-09-19T00:32:50;27.80;70.30
67598;DHT22;62026;39.230;9.122;2023-09-19T00:35:21;27.80;70.20
67598;DHT22;62026;39.230;9.122;2023-09-19T00:37:51;27.70;69.70
67598;DHT22;62026;39.230;9.122;2023-09-19T00:40:18;27.70;69.70
67598;DHT22;62026;39.230;9.122;2023-09-19T00:42:48;27.70;69.40
67598;DHT22;62026;39.230;9.122;2023-09-19T00:45:17;27.70;69.60
67598;DHT22;62026;39.230;9.122;2023-09-19T00:47:48;27.70;69.70
67598;DHT22;62026;39.230;9.122;2023-09-19T00:50:18;27.80;69.00
67598;DHT22;62026;39.230;9.122;2023-09-19T00:52:50;27.70;67.70
67598;DHT22;62026;39.230;9.122;2023-09-19T00:55:21;27.70;66.50
67598;DHT22;62026;39.230;9.122;2023-09-19T00:57:49;27.70;65.20
67598;DHT22;62026;39.230;9.122;2023-09-19T01:00:15;27.60;64.30
67598;DHT22;62026;39.230;9.122;2023-09-19T01:02:45;27.60;64.00
67598;DHT22;62026;39.230;9.122;2023-09-19T01:05:12;27.60;64.10
67598;DHT22;62026;39.230;9.122;2023-09-19T01:07:39;27.60;64.40
67598;DHT22;62026;39.230;9.122;2023-09-19T01:10:15;27.60;64.00
67598;DHT22;62026;39.230;9.122;2023-09-19T01:21:16;27.60;66.90
67598;DHT22;62026;39.230;9.122;2023-09-19T01:27:00;27.60;68.00
67598;DHT22;62026;39.230;9.122;2023-09-19T01:29:49;27.50;68.30
67598;DHT22;62026;39.230;9.122;2023-09-19T01:32:20;27.50;68.40
67598;DHT22;62026;39.230;9.122;2023-09-19T01:34:48;27.40;68.60
67598;DHT22;62026;39.230;9.122;2023-09-19T01:37:16;27.40;68.60
67598;DHT22;62026;39.230;9.122;2023-09-19T01:39:51;27.40;68.60
67598;DHT22;62026;39.230;9.122;2023-09-19T01:42:58;27.40;68.70
67598;DHT22;62026;39.230;9.122;2023-09-19T01:48:46;27.30;69.00
67598;DHT22;62026;39.230;9.122;2023-09-19T01:51:34;27.30;68.90
67598;DHT22;62026;39.230;9.122;2023-09-19T01:54:15;27.30;69.20
67598;DHT22;62026;39.230;9.122;2023-09-19T01:56:51;27.20;69.10
67598;DHT22;62026;39.230;9.122;2023-09-19T01:59:34;27.30;69.10
67598;DHT22;62026;39.230;9.122;2023-09-19T02:02:06;27.20;69.20
67598;DHT22;62026;39.230;9.122;2023-09-19T02:04:34;27.20;69.20
67598;DHT22;62026;39.230;9.122;2023-09-19T02:07:00;27.20;69.20
67598;DHT22;62026;39.230;9.122;2023-09-19T02:09:28;27.20;69.20
67598;DHT22;62026;39.230;9.122;2023-09-19T02:11:54;27.20;69.30
67598;DHT22;62026;39.230;9.122;2023-09-19T02:14:22;27.20;69.20
67598;DHT22;62026;39.230;9.122;2023-09-19T02:16:48;27.30;69.10
67598;DHT22;62026;39.230;9.122;2023-09-19T02:19:15;27.30;69.20
67598;DHT22;62026;39.230;9.122;2023-09-19T02:21:41;27.20;69.10
67598;DHT22;62026;39.230;9.122;2023-09-19T02:24:07;27.30;69.00
67598;DHT22;62026;39.230;9.122;2023-09-19T02:26:34;27.20;68.90
67598;DHT22;62026;39.230;9.122;2023-09-19T02:29:01;27.30;68.80
67598;DHT22;62026;39.230;9.122;2023-09-19T02:31:30;27.20;68.70
67598;DHT22;62026;39.230;9.122;2023-09-19T02:33:57;27.20;68.70
67598;DHT22;62026;39.230;9.122;2023-09-19T02:36:23;27.20;68.60
67598;DHT22;62026;39.230;9.122;2023-09-19T02:38:49;27.20;68.60
67598;DHT22;62026;39.230;9.122;2023-09-19T02:41:15;27.20;68.50
67598;DHT22;62026;39.230;9.122;2023-09-19T02:43:41;27.20;68.40
67598;DHT22;62026;39.230;9.122;2023-09-19T02:46:08;27.20;68.30
67598;DHT22;62026;39.230;9.122;2023-09-19T02:48:37;27.10;67.90
67598;DHT22;62026;39.230;9.122;2023-09-19T02:51:03;27.10;67.50
67598;DHT22;62026;39.230;9.122;2023-09-19T02:53:29;27.10;67.40
67598;DHT22;62026;39.230;9.122;2023-09-19T02:55:57;27.10;67.10
67598;DHT22;62026;39.230;9.122;2023-09-19T02:58:24;27.10;66.70
67598;DHT22;62026;39.230;9.122;2023-09-19T03:00:51;27.00;66.30
67598;DHT22;62026;39.230;9.122;2023-09-19T03:03:17;27.00;65.90
67598;DHT22;62026;39.230;9.122;2023-09-19T03:05:44;27.00;65.30
67598;DHT22;62026;39.230;9.122;2023-09-19T03:08:14;26.90;65.00
67598;DHT22;62026;39.230;9.122;2023-09-19T03:10:46;26.90;64.70
67598;DHT22;62026;39.230;9.122;2023-09-19T03:13:14;26.90;64.50
67598;DHT22;62026;39.230;9.122;2023-09-19T03:15:43;26.90;64.00
67598;DHT22;62026;39.230;9.122;2023-09-19T03:18:12;26.90;64.00
67598;DHT22;62026;39.230;9.122;2023-09-19T03:20:39;26.90;63.80
67598;DHT22;62026;39.230;9.122;2023-09-19T03:23:05;26.90;63.70
67598;DHT22;62026;39.230;9.122;2023-09-19T03:25:34;26.90;63.50
67598;DHT22;62026;39.230;9.122;2023-09-19T03:28:02;26.90;63.40
67598;DHT22;62026;39.230;9.122;2023-09-19T03:30:32;26.80;63.20
67598;DHT22;62026;39.230;9.122;2023-09-19T03:33:00;26.80;63.00
67598;DHT22;62026;39.230;9.122;2023-09-19T03:35:26;26.80;62.90
67598;DHT22;62026;39.230;9.122;2023-09-19T03:37:52;26.80;62.70
67598;DHT22;62026;39.230;9.122;2023-09-19T03:40:18;26.80;62.50
67598;DHT22;62026;39.230;9.122;2023-09-19T03:42:47;26.80;62.50
67598;DHT22;62026;39.230;9.122;2023-09-19T03:45:13;26.80;62.50
67598;DHT22;62026;39.230;9.122;2023-09-19T03:47:46;26.70;62.60
67598;DHT22;62026;39.230;9.122;2023-09-19T03:50:17;26.70;62.50
67598;DHT22;62026;39.230;9.122;2023-09-19T03:52:44;26.80;62.40
67598;DHT22;62026;39.230;9.122;2023-09-19T03:55:10;26.70;62.50
67598;DHT22;62026;39.230;9.122;2023-09-19T03:57:38;26.70;62.30
67598;DHT22;62026;39.230;9.122;2023-09-19T04:00:04;26.70;62.40
67598;DHT22;62026;39.230;9.122;2023-09-19T04:02:39;26.70;62.30
67598;DHT22;62026;39.230;9.122;2023-09-19T04:05:06;26.70;62.20
67598;DHT22;62026;39.230;9.122;2023-09-19T04:07:32;26.70;62.30
67598;DHT22;62026;39.230;9.122;2023-09-19T04:09:58;26.70;62.10
67598;DHT22;62026;39.230;9.122;2023-09-19T04:12:24;26.60;62.00
67598;DHT22;62026;39.230;9.122;2023-09-19T04:14:50;26.70;62.00
67598;DHT22;62026;39.230;9.122;2023-09-19T04:17:16;26.70;61.60
67598;DHT22;62026;39.230;9.122;2023-09-19T04:19:42;26.60;61.50
67598;DHT22;62026;39.230;9.122;2023-09-19T04:22:08;26.60;61.20
67598;DHT22;62026;39.230;9.122;2023-09-19T04:24:35;26.60;61.10
67598;DHT22;62026;39.230;9.122;2023-09-19T04:27:01;26.60;61.00
67598;DHT22;62026;39.230;9.122;2023-09-19T04:29:27;26.50;61.10
67598;DHT22;62026;39.230;9.122;2023-09-19T04:31:55;26.50;61.00
67598;DHT22;62026;39.230;9.122;2023-09-19T04:34:22;26.50;61.10
67598;DHT22;62026;39.230;9.122;2023-09-19T04:36:50;26.50;61.00
67598;DHT22;62026;39.230;9.122;2023-09-19T04:39:16;26.50;60.90
67598;DHT22;62026;39.230;9.122;2023-09-19T04:41:43;26.50;60.90
67598;DHT22;62026;39.230;9.122;2023-09-19T04:44:11;26.50;60.70
67598;DHT22;62026;39.230;9.122;2023-09-19T04:46:39;26.50;60.80
67598;DHT22;62026;39.230;9.122;2023-09-19T04:49:05;26.50;60.50
67598;DHT22;62026;39.230;9.122;2023-09-19T04:51:31;26.60;60.60
67598;DHT22;62026;39.230;9.122;2023-09-19T04:54:00;26.50;60.50
67598;DHT22;62026;39.230;9.122;2023-09-19T04:56:26;26.50;60.60
67598;DHT22;62026;39.230;9.122;2023-09-19T04:58:54;26.50;60.70
67598;DHT22;62026;39.230;9.122;2023-09-19T05:01:20;26.50;60.70
67598;DHT22;62026;39.230;9.122;2023-09-19T05:03:49;26.40;60.70
67598;DHT22;62026;39.230;9.122;2023-09-19T05:06:18;26.40;60.70
67598;DHT22;62026;39.230;9.122;2023-09-19T05:08:50;26.40;60.70
67598;DHT22;62026;39.230;9.122;2023-09-19T05:11:20;26.40;60.80
67598;DHT22;62026;39.230;9.122;2023-09-19T05:13:49;26.40;61.00
67598;DHT22;62026;39.230;9.122;2023-09-19T05:16:19;26.40;60.90
67598;DHT22;62026;39.230;9.122;2023-09-19T05:18:45;26.30;60.90
67598;DHT22;62026;39.230;9.122;2023-09-19T05:21:10;26.30;60.80
67598;DHT22;62026;39.230;9.122;2023-09-19T05:23:37;26.20;60.90
67598;DHT22;62026;39.230;9.122;2023-09-19T05:26:03;26.20;60.80
67598;DHT22;62026;39.230;9.122;2023-09-19T05:28:30;26.20;60.00
67598;DHT22;62026;39.230;9.122;2023-09-19T05:31:00;26.20;59.70
67598;DHT22;62026;39.230;9.122;2023-09-19T05:33:27;26.20;59.50
67598;DHT22;62026;39.230;9.122;2023-09-19T05:35:53;26.20;59.50
67598;DHT22;62026;39.230;9.122;2023-09-19T05:38:19;26.20;59.70
67598;DHT22;62026;39.230;9.122;2023-09-19T05:40:46;26.20;60.00
67598;DHT22;62026;39.230;9.122;2023-09-19T05:43:12;26.20;60.10
67598;DHT22;62026;39.230;9.122;2023-09-19T05:45:40;26.30;59.90
67598;DHT22;62026;39.230;9.122;2023-09-19T05:48:11;26.30;60.10
67598;DHT22;62026;39.230;9.122;2023-09-19T05:50:39;26.30;59.80
67598;DHT22;62026;39.230;9.122;2023-09-19T05:53:05;26.30;59.30
67598;DHT22;62026;39.230;9.122;2023-09-19T05:55:32;26.40;58.60
67598;DHT22;62026;39.230;9.122;2023-09-19T05:57:58;26.40;58.50
67598;DHT22;62026;39.230;9.122;2023-09-19T06:00:25;26.40;58.20
67598;DHT22;62026;39.230;9.122;2023-09-19T06:02:56;26.40;58.00
67598;DHT22;62026;39.230;9.122;2023-09-19T06:05:25;26.40;57.90
67598;DHT22;62026;39.230;9.122;2023-09-19T06:07:58;26.40;57.90
67598;DHT22;62026;39.230;9.122;2023-09-19T06:10:26;26.50;57.80
67598;DHT22;62026;39.230;9.122;2023-09-19T06:12:54;26.50;57.70
67598;DHT22;62026;39.230;9.122;2023-09-19T06:15:21;26.50;57.60
67598;DHT22;62026;39.230;9.122;2023-09-19T06:17:52;26.60;57.70
67598;DHT22;62026;39.230;9.122;2023-09-19T06:20:22;26.70;57.70
67598;DHT22;62026;39.230;9.122;2023-09-19T06:22:49;26.70;57.40
67598;DHT22;62026;39.230;9.122;2023-09-19T06:25:16;26.80;57.50
67598;DHT22;62026;39.230;9.122;2023-09-19T06:27:47;26.90;57.20
67598;DHT22;62026;39.230;9.122;2023-09-19T06:30:21;26.90;57.00
67598;DHT22;62026;39.230;9.122;2023-09-19T06:32:58;27.00;56.80
67598;DHT22;62026;39.230;9.122;2023-09-19T06:35:25;27.10;56.70
67598;DHT22;62026;39.230;9.122;2023-09-19T06:37:55;27.20;56.60
67598;DHT22;62026;39.230;9.122;2023-09-19T06:40:23;27.30;56.60
67598;DHT22;62026;39.230;9.122;2023-09-19T06:42:53;27.30;56.50
67598;DHT22;62026;39.230;9.122;2023-09-19T06:45:20;27.30;56.20
67598;DHT22;62026;39.230;9.122;2023-09-19T06:47:48;27.30;55.90
67598;DHT22;62026;39.230;9.122;2023-09-19T06:50:25;27.30;55.80
67598;DHT22;62026;39.230;9.122;2023-09-19T06:52:55;27.40;55.60
67598;DHT22;62026;39.230;9.122;2023-09-19T06:55:23;27.40;55.60
67598;DHT22;62026;39.230;9.122;2023-09-19T06:57:51;27.40;55.80
67598;DHT22;62026;39.230;9.122;2023-09-19T07:00:17;27.40;55.80
67598;DHT22;62026;39.230;9.122;2023-09-19T07:03:02;27.40;55.60
67598;DHT22;62026;39.230;9.122;2023-09-19T07:05:31;27.40;55.50
67598;DHT22;62026;39.230;9.122;2023-09-19T07:07:59;27.60;55.30
67598;DHT22;62026;39.230;9.122;2023-09-19T07:10:27;27.80;55.10
67598;DHT22;62026;39.230;9.122;2023-09-19T07:13:07;28.00;54.40
67598;DHT22;62026;39.230;9.122;2023-09-19T07:15:36;28.20;54.10
67598;DHT22;62026;39.230;9.122;2023-09-19T07:18:12;28.40;53.60
67598;DHT22;62026;39.230;9.122;2023-09-19T07:20:43;28.40;53.30
67598;DHT22;62026;39.230;9.122;2023-09-19T07:23:20;28.50;53.10
67598;DHT22;62026;39.230;9.122;2023-09-19T07:25:48;28.60;52.80
67598;DHT22;62026;39.230;9.122;2023-09-19T07:28:15;28.60;52.80
67598;DHT22;62026;39.230;9.122;2023-09-19T07:30:41;28.70;52.70
67598;DHT22;62026;39.230;9.122;2023-09-19T07:33:08;28.90;52.40
67598;DHT22;62026;39.230;9.122;2023-09-19T07:35:37;29.10;52.00
67598;DHT22;62026;39.230;9.122;2023-09-19T07:38:07;29.20;51.80
67598;DHT22;62026;39.230;9.122;2023-09-19T07:40:33;29.30;51.40
67598;DHT22;62026;39.230;9.122;2023-09-19T07:43:00;29.40;51.20
67598;DHT22;62026;39.230;9.122;2023-09-19T07:45:30;29.60;50.80
67598;DHT22;62026;39.230;9.122;2023-09-19T07:47:57;29.80;50.40
67598;DHT22;62026;39.230;9.122;2023-09-19T07:50:23;29.90;49.80
67598;DHT22;62026;39.230;9.122;2023-09-19T07:52:50;30.00;49.60
67598;DHT22;62026;39.230;9.122;2023-09-19T07:55:22;30.00;49.30
67598;DHT22;62026;39.230;9.122;2023-09-19T07:57:54;30.10;49.30
67598;DHT22;62026;39.230;9.122;2023-09-19T08:11:35;30.30;49.40
67598;DHT22;62026;39.230;9.122;2023-09-19T08:14:01;29.70;48.90
67598;DHT22;62026;39.230;9.122;2023-09-19T08:16:27;29.80;49.00
67598;DHT22;62026;39.230;9.122;2023-09-19T08:18:53;29.80;48.50
67598;DHT22;62026;39.230;9.122;2023-09-19T08:21:24;29.90;48.00
67598;DHT22;62026;39.230;9.122;2023-09-19T08:23:51;30.10;47.70
67598;DHT22;62026;39.230;9.122;2023-09-19T08:26:18;30.30;47.40
67598;DHT22;62026;39.230;9.122;2023-09-19T08:28:45;30.40;47.00
67598;DHT22;62026;39.230;9.122;2023-09-19T08:31:11;30.50;46.80
67598;DHT22;62026;39.230;9.122;2023-09-19T08:33:37;30.60;46.60
67598;DHT22;62026;39.230;9.122;2023-09-19T08:36:04;30.50;46.20
67598;DHT22;62026;39.230;9.122;2023-09-19T08:38:34;30.30;45.80
67598;DHT22;62026;39.230;9.122;2023-09-19T08:41:05;30.60;45.50
67598;DHT22;62026;39.230;9.122;2023-09-19T08:43:33;30.90;45.20
67598;DHT22;62026;39.230;9.122;2023-09-19T08:46:12;31.00;44.80
67598;DHT22;62026;39.230;9.122;2023-09-19T08:49:15;31.20;44.50
67598;DHT22;62026;39.230;9.122;2023-09-19T08:52:01;31.50;44.10
67598;DHT22;62026;39.230;9.122;2023-09-19T08:54:38;31.90;43.50
67598;DHT22;62026;39.230;9.122;2023-09-19T08:57:07;32.20;43.20
67598;DHT22;62026;39.230;9.122;2023-09-19T08:59:40;32.30;42.50
67598;DHT22;62026;39.230;9.122;2023-09-19T09:02:14;32.30;42.30
67598;DHT22;62026;39.230;9.122;2023-09-19T09:04:43;32.50;41.80
67598;DHT22;62026;39.230;9.122;2023-09-19T09:07:11;32.70;41.40
67598;DHT22;62026;39.230;9.122;2023-09-19T09:09:39;33.10;41.00
67598;DHT22;62026;39.230;9.122;2023-09-19T09:12:11;33.20;40.50
67598;DHT22;62026;39.230;9.122;2023-09-19T09:14:46;33.20;40.30
67598;DHT22;62026;39.230;9.122;2023-09-19T09:17:14;33.10;40.30
67598;DHT22;62026;39.230;9.122;2023-09-19T09:19:40;33.20;40.10
67598;DHT22;62026;39.230;9.122;2023-09-19T09:22:08;33.50;39.90
67598;DHT22;62026;39.230;9.122;2023-09-19T09:24:36;33.80;39.50
67598;DHT22;62026;39.230;9.122;2023-09-19T09:27:05;33.90;39.00
67598;DHT22;62026;39.230;9.122;2023-09-19T09:29:46;34.20;38.90
67598;DHT22;62026;39.230;9.122;2023-09-19T09:32:26;34.30;38.80
67598;DHT22;62026;39.230;9.122;2023-09-19T09:35:00;34.50;38.40
67598;DHT22;62026;39.230;9.122;2023-09-19T09:37:28;34.50;38.10
67598;DHT22;62026;39.230;9.122;2023-09-19T09:39:57;34.20;37.90
67598;DHT22;62026;39.230;9.122;2023-09-19T09:42:43;34.20;38.20
67598;DHT22;62026;39.230;9.122;2023-09-19T09:45:22;34.40;37.80
67598;DHT22;62026;39.230;9.122;2023-09-19T09:48:01;34.40;37.60
67598;DHT22;62026;39.230;9.122;2023-09-19T09:50:46;34.60;37.60
67598;DHT22;62026;39.230;9.122;2023-09-19T09:53:24;34.70;37.20
67598;DHT22;62026;39.230;9.122;2023-09-19T09:55:59;34.70;37.10
67598;DHT22;62026;39.230;9.122;2023-09-19T09:58:49;34.40;37.40
67598;DHT22;62026;39.230;9.122;2023-09-19T10:01:20;34.20;37.60
67598;DHT22;62026;39.230;9.122;2023-09-19T10:03:46;34.10;37.50
67598;DHT22;62026;39.230;9.122;2023-09-19T10:06:17;34.20;37.20
67598;DHT22;62026;39.230;9.122;2023-09-19T10:09:08;34.10;37.60
67598;DHT22;62026;39.230;9.122;2023-09-19T10:11:49;34.20;37.50
67598;DHT22;62026;39.230;9.122;2023-09-19T10:14:35;34.30;37.40
67598;DHT22;62026;39.230;9.122;2023-09-19T10:17:05;34.30;37.00
67598;DHT22;62026;39.230;9.122;2023-09-19T10:19:59;33.90;36.70
67598;DHT22;62026;39.230;9.122;2023-09-19T10:22:33;34.00;37.20
67598;DHT22;62026;39.230;9.122;2023-09-19T10:25:01;34.30;36.70
67598;DHT22;62026;39.230;9.122;2023-09-19T10:27:30;34.40;36.80
67598;DHT22;62026;39.230;9.122;2023-09-19T10:30:05;34.80;36.50
67598;DHT22;62026;39.230;9.122;2023-09-19T10:32:35;34.80;36.30
67598;DHT22;62026;39.230;9.122;2023-09-19T10:35:04;34.70;36.20
67598;DHT22;62026;39.230;9.122;2023-09-19T10:37:33;34.60;36.20
67598;DHT22;62026;39.230;9.122;2023-09-19T10:40:04;34.30;36.40
67598;DHT22;62026;39.230;9.122;2023-09-19T10:42:38;34.00;36.50
67598;DHT22;62026;39.230;9.122;2023-09-19T10:45:08;33.90;36.80
67598;DHT22;62026;39.230;9.122;2023-09-19T10:47:39;33.80;36.80
67598;DHT22;62026;39.230;9.122;2023-09-19T10:50:06;33.60;36.90
67598;DHT22;62026;39.230;9.122;2023-09-19T10:52:40;33.50;37.10
67598;DHT22;62026;39.230;9.122;2023-09-19T10:55:08;33.40;36.80
67598;DHT22;62026;39.230;9.122;2023-09-19T10:57:44;33.30;37.00
67598;DHT22;62026;39.230;9.122;2023-09-19T11:00:12;33.30;36.90
67598;DHT22;62026;39.230;9.122;2023-09-19T11:05:41;33.30;36.70
67598;DHT22;62026;39.230;9.122;2023-09-19T11:08:08;33.10;37.00
67598;DHT22;62026;39.230;9.122;2023-09-19T11:10:49;33.00;36.90
67598;DHT22;62026;39.230;9.122;2023-09-19T11:13:27;32.70;37.00
67598;DHT22;62026;39.230;9.122;2023-09-19T11:26:50;32.70;37.30
67598;DHT22;62026;39.230;9.122;2023-09-19T11:29:27;32.80;37.20
67598;DHT22;62026;39.230;9.122;2023-09-19T11:31:55;32.80;37.20
67598;DHT22;62026;39.230;9.122;2023-09-19T11:40:08;32.80;37.60
67598;DHT22;62026;39.230;9.122;2023-09-19T11:42:46;32.80;37.70
67598;DHT22;62026;39.230;9.122;2023-09-19T11:48:23;33.00;37.40
67598;DHT22;62026;39.230;9.122;2023-09-19T11:50:53;33.10;37.40
67598;DHT22;62026;39.230;9.122;2023-09-19T11:53:20;33.00;37.20
67598;DHT22;62026;39.230;9.122;2023-09-19T11:55:48;32.90;37.40
67598;DHT22;62026;39.230;9.122;2023-09-19T11:58:16;33.10;37.30
67598;DHT22;62026;39.230;9.122;2023-09-19T12:00:45;33.00;37.50
67598;DHT22;62026;39.230;9.122;2023-09-19T12:03:12;32.90;37.50
67598;DHT22;62026;39.230;9.122;2023-09-19T12:05:44;32.80;37.90
67598;DHT22;62026;39.230;9.122;2023-09-19T12:08:10;32.60;38.30
67598;DHT22;62026;39.230;9.122;2023-09-19T12:10:49;32.60;38.30
67598;DHT22;62026;39.230;9.122;2023-09-19T12:13:20;32.40;38.90
67598;DHT22;62026;39.230;9.122;2023-09-19T12:15:46;32.40;39.10
67598;DHT22;62026;39.230;9.122;2023-09-19T12:18:28;32.40;39.00
67598;DHT22;62026;39.230;9.122;2023-09-19T12:20:55;32.30;38.80
67598;DHT22;62026;39.230;9.122;2023-09-19T12:23:23;32.20;38.50
67598;DHT22;62026;39.230;9.122;2023-09-19T12:25:52;32.00;38.60
67598;DHT22;62026;39.230;9.122;2023-09-19T12:28:20;31.90;38.60
67598;DHT22;62026;39.230;9.122;2023-09-19T12:30:47;32.00;39.10
67598;DHT22;62026;39.230;9.122;2023-09-19T12:33:18;32.10;38.80
67598;DHT22;62026;39.230;9.122;2023-09-19T12:35:46;32.00;39.20
67598;DHT22;62026;39.230;9.122;2023-09-19T12:38:26;32.00;38.70
67598;DHT22;62026;39.230;9.122;2023-09-19T12:41:01;32.00;38.80
67598;DHT22;62026;39.230;9.122;2023-09-19T12:43:29;32.00;38.70
67598;DHT22;62026;39.230;9.122;2023-09-19T12:45:59;31.90;38.60
67598;DHT22;62026;39.230;9.122;2023-09-19T12:48:26;31.80;38.80
67598;DHT22;62026;39.230;9.122;2023-09-19T12:51:06;31.80;39.10
67598;DHT22;62026;39.230;9.122;2023-09-19T12:53:43;31.80;38.80
67598;DHT22;62026;39.230;9.122;2023-09-19T12:56:18;31.80;39.00
67598;DHT22;62026;39.230;9.122;2023-09-19T12:58:55;31.80;39.20
67598;DHT22;62026;39.230;9.122;2023-09-19T13:01:23;31.80;39.40
67598;DHT22;62026;39.230;9.122;2023-09-19T13:06:49;31.70;39.00
67598;DHT22;62026;39.230;9.122;2023-09-19T13:09:17;31.80;39.30
67598;DHT22;62026;39.230;9.122;2023-09-19T13:11:46;31.70;38.80
67598;DHT22;62026;39.230;9.122;2023-09-19T13:14:17;31.70;39.20
67598;DHT22;62026;39.230;9.122;2023-09-19T13:17:04;31.70;39.20
67598;DHT22;62026;39.230;9.122;2023-09-19T13:19:50;31.70;39.70
67598;DHT22;62026;39.230;9.122;2023-09-19T13:22:40;31.80;39.80
67598;DHT22;62026;39.230;9.122;2023-09-19T13:25:14;31.80;39.90
67598;DHT22;62026;39.230;9.122;2023-09-19T13:27:45;31.80;40.00
67598;DHT22;62026;39.230;9.122;2023-09-19T13:30:14;31.70;39.80
67598;DHT22;62026;39.230;9.122;2023-09-19T13:32:41;31.50;40.30
67598;DHT22;62026;39.230;9.122;2023-09-19T13:35:09;31.60;40.70
67598;DHT22;62026;39.230;9.122;2023-09-19T13:37:37;31.50;41.00
67598;DHT22;62026;39.230;9.122;2023-09-19T13:40:10;31.40;42.00
67598;DHT22;62026;39.230;9.122;2023-09-19T13:42:37;31.30;43.50
67598;DHT22;62026;39.230;9.122;2023-09-19T13:45:04;31.30;44.30
67598;DHT22;62026;39.230;9.122;2023-09-19T13:47:32;31.10;46.10
67598;DHT22;62026;39.230;9.122;2023-09-19T13:50:02;31.20;47.40
67598;DHT22;62026;39.230;9.122;2023-09-19T13:52:30;31.20;49.50
67598;DHT22;62026;39.230;9.122;2023-09-19T13:54:57;30.90;48.60
67598;DHT22;62026;39.230;9.122;2023-09-19T13:57:24;31.00;47.50
67598;DHT22;62026;39.230;9.122;2023-09-19T13:59:54;30.80;47.80
67598;DHT22;62026;39.230;9.122;2023-09-19T14:02:21;30.80;46.90
67598;DHT22;62026;39.230;9.122;2023-09-19T14:04:51;30.90;47.20
67598;DHT22;62026;39.230;9.122;2023-09-19T14:07:18;30.90;47.50
67598;DHT22;62026;39.230;9.122;2023-09-19T14:09:46;30.90;47.00
67598;DHT22;62026;39.230;9.122;2023-09-19T14:12:13;30.90;47.20
67598;DHT22;62026;39.230;9.122;2023-09-19T14:14:41;30.80;47.40
67598;DHT22;62026;39.230;9.122;2023-09-19T14:17:07;30.80;46.30
67598;DHT22;62026;39.230;9.122;2023-09-19T14:19:34;30.80;47.00
67598;DHT22;62026;39.230;9.122;2023-09-19T14:22:02;30.90;45.80
67598;DHT22;62026;39.230;9.122;2023-09-19T14:24:33;30.90;45.70
67598;DHT22;62026;39.230;9.122;2023-09-19T14:27:00;30.90;47.80
67598;DHT22;62026;39.230;9.122;2023-09-19T14:29:26;30.90;48.20
67598;DHT22;62026;39.230;9.122;2023-09-19T14:31:52;30.90;48.90
67598;DHT22;62026;39.230;9.122;2023-09-19T14:34:18;30.80;49.00
67598;DHT22;62026;39.230;9.122;2023-09-19T14:36:45;30.80;48.20
67598;DHT22;62026;39.230;9.122;2023-09-19T14:39:12;30.80;47.70
67598;DHT22;62026;39.230;9.122;2023-09-19T14:41:38;30.80;48.00
67598;DHT22;62026;39.230;9.122;2023-09-19T14:44:04;30.80;48.30
67598;DHT22;62026;39.230;9.122;2023-09-19T14:46:30;30.90;48.90
67598;DHT22;62026;39.230;9.122;2023-09-19T14:48:56;31.00;49.00
67598;DHT22;62026;39.230;9.122;2023-09-19T14:51:25;31.00;49.20
67598;DHT22;62026;39.230;9.122;2023-09-19T14:53:54;31.00;47.60
67598;DHT22;62026;39.230;9.122;2023-09-19T14:56:19;31.00;49.10
67598;DHT22;62026;39.230;9.122;2023-09-19T14:58:47;31.00;49.30
67598;DHT22;62026;39.230;9.122;2023-09-19T15:01:13;31.10;49.60
67598;DHT22;62026;39.230;9.122;2023-09-19T15:03:41;31.10;49.50
67598;DHT22;62026;39.230;9.122;2023-09-19T15:06:12;31.10;48.70
67598;DHT22;62026;39.230;9.122;2023-09-19T15:08:44;31.10;48.50
67598;DHT22;62026;39.230;9.122;2023-09-19T15:11:19;31.00;47.30
67598;DHT22;62026;39.230;9.122;2023-09-19T15:13:48;31.00;48.00
67598;DHT22;62026;39.230;9.122;2023-09-19T15:16:18;30.80;48.20
67598;DHT22;62026;39.230;9.122;2023-09-19T15:18:45;30.80;48.60
67598;DHT22;62026;39.230;9.122;2023-09-19T15:21:15;30.80;48.60
67598;DHT22;62026;39.230;9.122;2023-09-19T15:23:45;30.80;48.40
67598;DHT22;62026;39.230;9.122;2023-09-19T15:26:14;30.90;48.00
67598;DHT22;62026;39.230;9.122;2023-09-19T15:28:47;30.80;48.30
67598;DHT22;62026;39.230;9.122;2023-09-19T15:31:14;30.90;48.20
67598;DHT22;62026;39.230;9.122;2023-09-19T15:33:41;30.80;47.50
67598;DHT22;62026;39.230;9.122;2023-09-19T15:36:11;30.80;47.00
67598;DHT22;62026;39.230;9.122;2023-09-19T15:38:57;30.80;46.70
67598;DHT22;62026;39.230;9.122;2023-09-19T15:43:59;30.80;46.90
67598;DHT22;62026;39.230;9.122;2023-09-19T15:46:30;30.80;46.10
67598;DHT22;62026;39.230;9.122;2023-09-19T15:48:57;30.80;45.60
67598;DHT22;62026;39.230;9.122;2023-09-19T15:51:24;30.70;46.50
67598;DHT22;62026;39.230;9.122;2023-09-19T15:53:52;30.70;47.50
67598;DHT22;62026;39.230;9.122;2023-09-19T15:56:20;30.70;46.60
67598;DHT22;62026;39.230;9.122;2023-09-19T15:58:51;30.80;46.00
67598;DHT22;62026;39.230;9.122;2023-09-19T16:01:19;30.80;45.90
67598;DHT22;62026;39.230;9.122;2023-09-19T16:03:51;30.90;45.80
67598;DHT22;62026;39.230;9.122;2023-09-19T16:06:28;30.90;46.10
67598;DHT22;62026;39.230;9.122;2023-09-19T16:08:56;30.90;45.90
67598;DHT22;62026;39.230;9.122;2023-09-19T16:11:25;30.90;45.60
67598;DHT22;62026;39.230;9.122;2023-09-19T16:13:53;30.90;45.20
67598;DHT22;62026;39.230;9.122;2023-09-19T16:16:20;30.80;45.50
67598;DHT22;62026;39.230;9.122;2023-09-19T16:18:55;30.80;45.70
67598;DHT22;62026;39.230;9.122;2023-09-19T16:21:24;30.80;45.90
67598;DHT22;62026;39.230;9.122;2023-09-19T16:23:52;30.80;45.90
67598;DHT22;62026;39.230;9.122;2023-09-19T16:26:21;30.70;46.40
67598;DHT22;62026;39.230;9.122;2023-09-19T16:28:51;30.70;46.70
67598;DHT22;62026;39.230;9.122;2023-09-19T16:31:18;30.70;47.20
67598;DHT22;62026;39.230;9.122;2023-09-19T16:33:46;30.60;47.60
67598;DHT22;62026;39.230;9.122;2023-09-19T16:36:17;30.60;47.90
67598;DHT22;62026;39.230;9.122;2023-09-19T16:38:45;30.50;47.90
67598;DHT22;62026;39.230;9.122;2023-09-19T16:41:13;30.50;47.90